createdAt,value
2022-11-26T00:00:58.045Z,3.08
2022-11-26T00:05:59.374Z,3.20
2022-11-26T00:11:01.478Z,3.20
2022-11-26T00:16:02.903Z,3.80
2022-11-26T00:21:04.251Z,3.05
2022-11-26T00:26:11.850Z,2.78
2022-11-26T00:31:15.194Z,2.70
2022-11-26T00:36:22.509Z,2.40
2022-11-26T00:41:24.820Z,2.67
2022-11-26T00:46:26.224Z,2.70
2022-11-26T00:51:28.108Z,2.60
2022-11-26T00:56:33.874Z,2.53
2022-11-26T01:01:39.017Z,2.50
2022-11-26T01:06:41.527Z,3.27
2022-11-26T01:11:42.822Z,4.55
2022-11-26T01:16:44.921Z,3.88
2022-11-26T01:21:46.397Z,3.83
2022-11-26T01:26:47.713Z,3.25
2022-11-26T01:31:49.032Z,2.97
2022-11-26T01:36:50.295Z,2.70
2022-11-26T01:42:07.025Z,2.75
2022-11-26T01:47:23.649Z,3.07
2022-11-26T01:52:25.684Z,3.03
2022-11-26T01:57:28.684Z,2.40
2022-11-26T02:02:30.020Z,3.03
2022-11-26T02:07:31.772Z,2.80
2022-11-26T02:12:33.185Z,2.40
2022-11-26T02:17:45.103Z,2.83
2022-11-26T02:22:49.159Z,3.50
2022-11-26T02:27:53.660Z,2.80
2022-11-26T02:33:01.282Z,2.60
2022-11-26T02:38:07.094Z,2.60
2022-11-26T02:43:08.345Z,3.10
2022-11-26T02:48:11.856Z,3.10
2022-11-26T02:53:14.050Z,3.33
2022-11-26T02:58:15.406Z,3.70
2022-11-26T03:03:26.012Z,3.60
2022-11-26T03:08:27.379Z,3.00
2022-11-26T03:13:28.635Z,3.50
2022-11-26T03:18:30.214Z,3.80
2022-11-26T03:23:31.443Z,3.10
2022-11-26T03:28:32.711Z,3.07
2022-11-26T03:33:33.967Z,3.33
2022-11-26T03:38:35.291Z,3.50
2022-11-26T03:43:36.558Z,3.00
2022-11-26T03:48:37.805Z,3.50
2022-11-26T03:53:39.166Z,3.00
2022-11-26T03:58:40.436Z,3.35
2022-11-26T04:03:42.103Z,4.43
2022-11-26T04:08:43.391Z,2.95
2022-11-26T04:13:44.663Z,3.00
2022-11-26T04:18:46.146Z,3.63
2022-11-26T04:23:47.367Z,3.90
2022-11-26T04:28:50.578Z,4.37
2022-11-26T04:33:52.105Z,3.40
2022-11-26T04:38:53.437Z,3.85
2022-11-26T04:43:54.674Z,3.50
2022-11-26T04:48:55.929Z,3.30
2022-11-26T04:54:00.446Z,3.53
2022-11-26T04:59:04.118Z,3.47
2022-11-26T05:04:05.364Z,4.70
2022-11-26T05:09:06.650Z,4.28
2022-11-26T05:14:07.895Z,5.88
2022-11-26T05:19:09.168Z,4.27
2022-11-26T05:24:10.428Z,4.35
2022-11-26T05:29:12.285Z,4.13
2022-11-26T05:34:13.590Z,4.60
2022-11-26T05:39:15.878Z,3.78
2022-11-26T05:44:17.169Z,4.40
2022-11-26T05:49:18.414Z,4.80
2022-11-26T05:54:19.833Z,9.50
2022-11-26T05:59:21.092Z,15.77
2022-11-26T06:04:22.390Z,14.20
2022-11-26T06:09:23.658Z,11.77
2022-11-26T06:14:24.876Z,12.10
2022-11-26T06:19:26.253Z,12.50
2022-11-26T06:24:27.543Z,7.82
2022-11-26T06:29:28.841Z,5.60
2022-11-26T06:34:30.106Z,6.23
2022-11-26T06:39:31.368Z,6.82
2022-11-26T06:44:34.846Z,7.95
2022-11-26T06:49:36.219Z,7.50
2022-11-26T06:54:37.700Z,8.55
2022-11-26T06:59:39.249Z,8.27
2022-11-26T07:04:40.775Z,10.35
2022-11-26T07:09:42.226Z,10.35
2022-11-26T07:14:43.625Z,9.40
2022-11-26T07:19:44.890Z,9.05
2022-11-26T07:24:46.150Z,9.17
2022-11-26T07:29:47.374Z,10.13
2022-11-26T07:34:48.600Z,10.70
2022-11-26T07:39:49.881Z,8.25
2022-11-26T07:44:51.268Z,6.70
2022-11-26T07:49:52.608Z,6.43
2022-11-26T07:54:53.967Z,6.43
2022-11-26T07:59:55.229Z,7.30
2022-11-26T08:04:56.517Z,6.20
2022-11-26T08:09:57.810Z,7.53
2022-11-26T08:14:59.089Z,8.83
2022-11-26T08:20:00.330Z,7.78
2022-11-26T08:25:01.594Z,6.05
2022-11-26T08:30:03.114Z,6.37
2022-11-26T08:35:04.527Z,6.03
2022-11-26T08:40:06.179Z,6.97
2022-11-26T08:45:07.786Z,7.57
2022-11-26T08:50:09.429Z,7.07
2022-11-26T08:55:11.738Z,6.47
2022-11-26T09:00:13.274Z,7.00
2022-11-26T09:05:14.582Z,7.53
2022-11-26T09:10:15.914Z,5.97
2022-11-26T09:15:17.240Z,5.13
2022-11-26T09:20:18.637Z,4.23
2022-11-26T09:25:19.870Z,4.38
2022-11-26T09:30:21.108Z,5.90
2022-11-26T09:35:22.373Z,4.78
2022-11-26T09:40:25.411Z,4.00
2022-11-26T09:45:40.971Z,4.40
2022-11-26T09:50:43.103Z,4.43
2022-11-26T09:55:46.991Z,3.97
2022-11-26T10:00:49.578Z,4.88
2022-11-26T10:05:58.195Z,4.47
2022-11-26T10:11:04.125Z,5.00
2022-11-26T10:16:13.336Z,4.38
2022-11-26T10:21:14.663Z,4.97
2022-11-26T10:26:28.683Z,6.00
2022-11-26T10:31:32.029Z,5.15
2022-11-26T10:36:33.304Z,4.20
2022-11-26T10:41:35.310Z,5.30
2022-11-26T10:46:37.498Z,4.83
2022-11-26T10:51:39.215Z,4.63
2022-11-26T10:56:41.893Z,4.03
2022-11-26T11:01:43.304Z,3.60
2022-11-26T11:06:44.640Z,3.80
2022-11-26T11:11:45.881Z,4.00
2022-11-26T11:16:47.305Z,3.63
2022-11-26T11:21:48.795Z,3.40
2022-11-26T11:26:54.064Z,3.20
2022-11-26T11:31:56.508Z,4.15
2022-11-26T11:36:59.349Z,3.30
2022-11-26T11:42:01.998Z,3.10
2022-11-26T11:47:10.478Z,3.17
2022-11-26T11:52:23.743Z,2.60
2022-11-26T11:57:33.716Z,2.53
2022-11-26T12:02:50.319Z,3.30
2022-11-26T12:07:56.990Z,2.60
2022-11-26T12:13:00.046Z,2.50
2022-11-26T12:18:01.270Z,2.47
2022-11-26T12:23:24.547Z,2.47
2022-11-26T12:28:27.698Z,2.73
2022-11-26T12:33:34.763Z,2.75
2022-11-26T12:38:44.651Z,2.70
2022-11-26T12:43:51.962Z,3.00
2022-11-26T12:49:02.356Z,2.70
2022-11-26T12:54:06.680Z,3.20
2022-11-26T12:59:11.099Z,3.28
2022-11-26T13:04:36.630Z,3.00
2022-11-26T13:09:45.736Z,3.20
2022-11-26T13:14:56.524Z,2.83
2022-11-26T13:20:04.657Z,3.17
2022-11-26T13:25:08.952Z,3.72
2022-11-26T13:30:28.848Z,4.15
2022-11-26T13:35:39.196Z,3.13
2022-11-26T13:40:46.919Z,3.10
2022-11-26T13:46:07.169Z,5.03
2022-11-26T13:51:22.258Z,3.33
2022-11-26T13:56:24.884Z,4.10
2022-11-26T14:01:28.198Z,2.63
2022-11-26T14:06:29.745Z,3.03
2022-11-26T14:11:40.320Z,3.17
2022-11-26T14:17:00.475Z,3.20
2022-11-26T14:22:03.684Z,5.28
2022-11-26T14:27:04.973Z,4.30
2022-11-26T14:32:11.541Z,5.82
2022-11-26T14:37:14.089Z,7.20
2022-11-26T14:42:16.339Z,6.35
2022-11-26T14:47:22.582Z,3.28
2022-11-26T14:52:26.135Z,7.63
2022-11-26T14:57:40.316Z,4.30
2022-11-26T15:02:43.270Z,2.90
2022-11-26T15:07:45.225Z,3.40
2022-11-26T15:12:47.930Z,4.88
2022-11-26T15:17:51.985Z,4.40
2022-11-26T15:22:54.812Z,4.20
2022-11-26T15:28:06.400Z,4.33
2022-11-26T15:33:07.627Z,4.20
2022-11-26T15:38:15.894Z,5.90
2022-11-26T15:43:32.815Z,8.13
2022-11-26T15:48:54.464Z,8.52
2022-11-26T15:53:55.788Z,7.30
2022-11-26T15:58:58.973Z,5.22
2022-11-26T16:04:04.465Z,8.55
2022-11-26T16:09:14.924Z,10.20
2022-11-26T16:14:27.974Z,12.45
2022-11-26T16:19:29.925Z,12.33
2022-11-26T16:24:43.541Z,12.35
2022-11-26T16:29:45.213Z,7.57
2022-11-26T16:34:46.730Z,5.05
2022-11-26T16:39:49.238Z,6.10
2022-11-26T16:44:50.624Z,12.73
2022-11-26T16:49:52.230Z,7.40
2022-11-26T16:54:53.490Z,9.02
2022-11-26T16:59:58.180Z,10.45
2022-11-26T17:04:59.458Z,11.35
2022-11-26T17:10:00.713Z,8.67
2022-11-26T17:15:01.999Z,7.22
2022-11-26T17:20:04.407Z,8.38
2022-11-26T17:25:05.967Z,12.07
2022-11-26T17:30:08.324Z,13.73
2022-11-26T17:35:09.753Z,20.23
2022-11-26T17:40:21.760Z,18.35
2022-11-26T17:45:23.062Z,12.88
2022-11-26T17:50:25.923Z,16.80
2022-11-26T17:55:27.305Z,14.60
2022-11-26T18:00:29.055Z,14.97
2022-11-26T18:05:30.433Z,11.82
2022-11-26T18:10:31.681Z,10.88
2022-11-26T18:15:32.929Z,12.82
2022-11-26T18:20:34.416Z,13.05
2022-11-26T18:25:35.670Z,15.90
2022-11-26T18:30:37.133Z,8.18
2022-11-26T18:35:40.179Z,9.23
2022-11-26T18:40:41.495Z,9.98
2022-11-26T18:45:43.462Z,12.30
2022-11-26T18:50:44.740Z,12.17
2022-11-26T18:55:45.973Z,10.85
2022-11-26T19:00:47.801Z,11.23
2022-11-26T19:05:53.304Z,11.43
2022-11-26T19:10:54.626Z,10.38
2022-11-26T19:15:55.919Z,11.47
2022-11-26T19:20:57.203Z,11.93
2022-11-26T19:25:58.568Z,11.43
2022-11-26T19:31:03.863Z,13.05
2022-11-26T19:36:06.857Z,14.13
2022-11-26T19:41:08.287Z,14.60
2022-11-26T19:46:11.059Z,15.00
2022-11-26T19:51:13.124Z,11.88
2022-11-26T19:56:18.688Z,11.02
2022-11-26T20:01:20.753Z,12.32
2022-11-26T20:06:26.553Z,14.70
2022-11-26T20:11:28.608Z,13.38
2022-11-26T20:16:31.166Z,16.10
2022-11-26T20:21:33.262Z,16.10
2022-11-26T20:26:36.578Z,15.80
2022-11-26T20:31:45.796Z,14.20
2022-11-26T20:36:47.391Z,13.45
2022-11-26T20:41:48.902Z,14.30
2022-11-26T20:46:50.189Z,14.25
2022-11-26T20:51:51.557Z,16.50
2022-11-26T20:56:52.976Z,15.20
2022-11-26T21:01:54.325Z,14.20
2022-11-26T21:06:55.706Z,12.95
2022-11-26T21:11:57.316Z,15.13
2022-11-26T21:16:58.746Z,13.88
2022-11-26T21:22:00.358Z,15.93
2022-11-26T21:27:01.611Z,13.55
2022-11-26T21:32:02.878Z,10.57
2022-11-26T21:37:04.320Z,11.93
2022-11-26T21:42:05.595Z,12.60
2022-11-26T21:47:06.863Z,13.33
2022-11-26T21:52:08.135Z,15.70
2022-11-26T21:57:09.365Z,14.98
2022-11-26T22:02:12.079Z,16.95
2022-11-26T22:07:13.407Z,14.27
2022-11-26T22:12:14.730Z,13.37
2022-11-26T22:17:15.975Z,15.23
2022-11-26T22:22:17.231Z,14.20
2022-11-26T22:27:18.553Z,14.10
2022-11-26T22:32:19.993Z,13.00
2022-11-26T22:37:21.297Z,13.70
2022-11-26T22:42:22.582Z,12.77
2022-11-26T22:47:23.866Z,16.55
2022-11-26T22:52:25.153Z,20.92
2022-11-26T22:57:26.390Z,14.18
2022-11-26T23:02:27.989Z,13.40
2022-11-26T23:07:29.342Z,12.40
2022-11-26T23:12:30.643Z,12.90
2022-11-26T23:17:31.896Z,12.57
2022-11-26T23:22:33.142Z,12.63
2022-11-26T23:27:34.453Z,12.53
2022-11-26T23:32:35.675Z,12.13
2022-11-26T23:37:38.168Z,12.05
2022-11-26T23:42:39.554Z,12.18
2022-11-26T23:47:40.870Z,13.13
2022-11-26T23:52:42.136Z,12.53
2022-11-26T23:57:43.372Z,13.30
